createdAt,value
2024-05-09T00:00:46.675Z,5.13
2024-05-09T00:03:34.759Z,6.30
2024-05-09T00:06:02.467Z,5.80
2024-05-09T00:08:30.481Z,5.47
2024-05-09T00:10:58.120Z,6.72
2024-05-09T00:13:26.082Z,6.70
2024-05-09T00:15:53.572Z,6.15
2024-05-09T00:18:21.583Z,5.75
2024-05-09T00:20:49.261Z,6.15
2024-05-09T00:23:17.176Z,5.40
2024-05-09T00:25:45.679Z,5.72
2024-05-09T00:28:14.643Z,5.53
2024-05-09T00:30:42.126Z,6.07
2024-05-09T00:33:11.055Z,5.30
2024-05-09T00:35:39.907Z,5.00
2024-05-09T00:38:08.367Z,4.05
2024-05-09T00:40:42.009Z,3.50
2024-05-09T00:43:12.987Z,3.65
2024-05-09T00:45:41.712Z,3.22
2024-05-09T00:48:14.228Z,3.08
2024-05-09T00:50:45.541Z,3.30
2024-05-09T00:53:15.982Z,3.80
2024-05-09T00:55:44.533Z,5.47
2024-05-09T00:58:16.378Z,5.00
2024-05-09T01:00:44.529Z,4.97
2024-05-09T01:03:14.067Z,4.95
2024-05-09T01:05:45.285Z,4.97
2024-05-09T01:08:13.635Z,5.00
2024-05-09T01:10:44.082Z,3.88
2024-05-09T01:13:14.081Z,4.07
2024-05-09T01:15:42.247Z,4.13
2024-05-09T01:18:12.765Z,4.10
2024-05-09T01:20:43.929Z,3.17
2024-05-09T01:23:16.048Z,2.85
2024-05-09T01:25:46.310Z,3.60
2024-05-09T01:28:15.230Z,3.17
2024-05-09T01:30:42.819Z,2.63
2024-05-09T01:33:14.051Z,2.35
2024-05-09T01:35:43.566Z,2.70
2024-05-09T01:38:17.435Z,2.08
2024-05-09T01:43:18.841Z,2.80
2024-05-09T01:45:46.357Z,2.40
2024-05-09T01:48:14.318Z,2.10
2024-05-09T01:50:43.156Z,2.53
2024-05-09T01:53:14.492Z,2.78
2024-05-09T01:55:43.217Z,2.30
2024-05-09T01:58:14.272Z,2.50
2024-05-09T02:00:43.299Z,2.40
2024-05-09T02:03:15.751Z,2.88
2024-05-09T02:05:46.908Z,2.47
2024-05-09T02:08:20.194Z,2.50
2024-05-09T02:10:51.645Z,2.42
2024-05-09T02:13:19.872Z,2.60
2024-05-09T02:15:47.449Z,2.35
2024-05-09T02:18:15.486Z,1.98
2024-05-09T02:20:43.772Z,2.22
2024-05-09T02:23:12.704Z,1.83
2024-05-09T02:25:41.667Z,2.00
2024-05-09T02:28:09.623Z,2.25
2024-05-09T02:30:40.716Z,1.63
2024-05-09T02:33:12.555Z,2.10
2024-05-09T02:35:42.390Z,1.58
2024-05-09T02:38:10.970Z,1.70
2024-05-09T02:40:39.818Z,1.80
2024-05-09T02:43:10.640Z,1.52
2024-05-09T02:45:40.047Z,3.03
2024-05-09T02:48:12.783Z,2.22
2024-05-09T02:50:41.413Z,2.30
2024-05-09T02:53:10.235Z,2.50
2024-05-09T02:55:38.836Z,2.40
2024-05-09T02:58:10.644Z,2.53
2024-05-09T03:00:41.315Z,2.55
2024-05-09T03:03:15.514Z,2.35
2024-05-09T03:05:47.088Z,2.33
2024-05-09T03:08:15.366Z,2.70
2024-05-09T03:10:43.088Z,2.10
2024-05-09T03:13:15.201Z,2.10
2024-05-09T03:15:44.803Z,2.15
2024-05-09T03:18:13.758Z,1.92
2024-05-09T03:20:44.979Z,1.83
2024-05-09T03:23:13.370Z,2.00
2024-05-09T03:25:42.142Z,2.25
2024-05-09T03:28:12.271Z,1.83
2024-05-09T03:30:42.573Z,1.80
2024-05-09T03:33:13.158Z,1.73
2024-05-09T03:35:44.792Z,1.83
2024-05-09T03:38:12.740Z,1.63
2024-05-09T03:40:49.319Z,1.80
2024-05-09T03:43:18.664Z,1.73
2024-05-09T03:45:47.993Z,1.88
2024-05-09T03:48:17.876Z,1.55
2024-05-09T03:50:48.480Z,1.55
2024-05-09T03:53:16.507Z,1.65
2024-05-09T03:55:44.171Z,1.60
2024-05-09T03:58:14.580Z,1.60
2024-05-09T04:00:45.622Z,1.80
2024-05-09T04:03:15.423Z,2.35
2024-05-09T04:05:44.583Z,1.80
2024-05-09T04:08:12.874Z,1.83
2024-05-09T04:10:41.205Z,1.60
2024-05-09T04:13:10.553Z,1.67
2024-05-09T04:15:44.276Z,2.00
2024-05-09T04:18:17.637Z,1.70
2024-05-09T04:20:45.354Z,2.25
2024-05-09T04:23:14.908Z,1.65
2024-05-09T04:25:44.987Z,1.92
2024-05-09T04:28:14.119Z,1.70
2024-05-09T04:30:42.598Z,1.60
2024-05-09T04:33:13.310Z,1.85
2024-05-09T04:35:45.503Z,1.27
2024-05-09T04:38:14.513Z,2.08
2024-05-09T04:40:43.034Z,1.92
2024-05-09T04:43:21.353Z,1.55
2024-05-09T04:45:48.881Z,1.50
2024-05-09T04:48:17.234Z,1.77
2024-05-09T04:50:47.853Z,1.58
2024-05-09T04:53:17.413Z,1.90
2024-05-09T04:55:45.716Z,1.70
2024-05-09T04:58:13.767Z,2.58
2024-05-09T05:00:41.832Z,1.65
2024-05-09T05:03:15.283Z,1.67
2024-05-09T05:05:45.806Z,1.83
2024-05-09T05:08:19.292Z,1.80
2024-05-09T05:10:49.233Z,1.90
2024-05-09T05:13:20.940Z,1.73
2024-05-09T05:15:51.170Z,2.00
2024-05-09T05:18:19.568Z,1.90
2024-05-09T05:20:47.502Z,1.67
2024-05-09T05:23:20.086Z,2.00
2024-05-09T05:25:49.431Z,1.88
2024-05-09T05:28:17.812Z,1.40
2024-05-09T05:30:47.206Z,1.38
2024-05-09T05:33:19.002Z,2.10
2024-05-09T05:35:47.475Z,1.52
2024-05-09T05:38:15.691Z,1.40
2024-05-09T05:40:43.264Z,1.52
2024-05-09T05:43:17.549Z,1.38
2024-05-09T05:45:45.982Z,1.40
2024-05-09T05:48:17.839Z,1.55
2024-05-09T05:50:45.990Z,3.92
2024-05-09T05:53:14.331Z,3.42
2024-05-09T05:55:42.324Z,2.22
2024-05-09T05:58:11.195Z,1.85
2024-05-09T06:00:40.672Z,1.90
2024-05-09T06:03:10.799Z,1.25
2024-05-09T06:05:40.626Z,1.33
2024-05-09T06:08:09.591Z,1.38
2024-05-09T06:10:39.928Z,1.50
2024-05-09T06:13:13.442Z,1.60
2024-05-09T06:15:42.227Z,1.50
2024-05-09T06:18:12.069Z,1.77
2024-05-09T06:20:42.491Z,1.98
2024-05-09T06:23:11.790Z,1.88
2024-05-09T06:25:39.961Z,1.33
2024-05-09T06:28:08.000Z,1.77
2024-05-09T06:30:42.133Z,1.30
2024-05-09T06:33:14.357Z,1.50
2024-05-09T06:35:44.409Z,1.40
2024-05-09T06:38:12.716Z,1.42
2024-05-09T06:40:42.815Z,2.45
2024-05-09T06:43:16.847Z,1.58
2024-05-09T06:45:48.176Z,2.42
2024-05-09T06:48:19.764Z,1.77
2024-05-09T06:50:48.139Z,1.75
2024-05-09T06:53:17.499Z,1.55
2024-05-09T06:55:45.203Z,1.15
2024-05-09T06:58:14.241Z,1.60
2024-05-09T07:00:42.473Z,1.70
2024-05-09T07:03:12.271Z,1.80
2024-05-09T07:05:41.222Z,1.45
2024-05-09T07:08:09.220Z,1.30
2024-05-09T07:10:37.289Z,1.40
2024-05-09T07:13:09.991Z,1.23
2024-05-09T07:15:41.647Z,1.50
2024-05-09T07:18:15.888Z,1.75
2024-05-09T07:20:44.464Z,1.58
2024-05-09T07:23:13.343Z,1.48
2024-05-09T07:25:41.911Z,1.50
2024-05-09T07:28:17.541Z,1.80
2024-05-09T07:30:45.573Z,1.70
2024-05-09T07:33:22.780Z,1.80
2024-05-09T07:35:51.865Z,1.38
2024-05-09T07:38:20.074Z,1.30
2024-05-09T07:40:47.787Z,1.25
2024-05-09T07:43:16.344Z,2.05
2024-05-09T07:45:51.853Z,1.20
2024-05-09T07:52:38.406Z,1.70
2024-05-09T07:53:50.012Z,1.40
2024-05-09T07:56:22.557Z,1.13
2024-05-09T07:58:56.359Z,1.10
2024-05-09T08:01:28.805Z,1.02
2024-05-09T08:03:57.219Z,0.90
2024-05-09T08:06:25.601Z,1.20
2024-05-09T08:08:53.704Z,1.00
2024-05-09T08:11:21.699Z,1.15
2024-05-09T08:13:49.605Z,0.75
2024-05-09T08:16:17.246Z,1.23
2024-05-09T08:18:45.303Z,1.27
2024-05-09T08:21:12.897Z,1.00
2024-05-09T08:23:40.750Z,1.20
2024-05-09T08:26:08.204Z,1.30
2024-05-09T08:28:36.112Z,0.90
2024-05-09T08:31:06.748Z,0.93
2024-05-09T08:33:38.686Z,0.98
2024-05-09T08:36:09.504Z,0.90
2024-05-09T08:38:37.436Z,0.85
2024-05-09T08:41:05.161Z,1.10
2024-05-09T08:43:33.096Z,0.73
2024-05-09T08:46:00.755Z,1.15
2024-05-09T08:48:29.786Z,1.05
2024-05-09T08:50:59.488Z,0.68
2024-05-09T08:53:27.623Z,1.00
2024-05-09T08:55:57.621Z,1.48
2024-05-09T08:58:26.756Z,0.60
2024-05-09T09:00:54.394Z,0.80
2024-05-09T09:03:28.182Z,0.80
2024-05-09T09:06:11.260Z,0.90
2024-05-09T09:08:42.166Z,0.70
2024-05-09T09:11:10.825Z,0.95
2024-05-09T09:13:39.088Z,1.00
2024-05-09T09:16:07.011Z,0.90
2024-05-09T09:18:35.645Z,0.88
2024-05-09T09:21:03.508Z,0.88
2024-05-09T09:23:31.443Z,1.02
2024-05-09T09:26:00.145Z,1.10
2024-05-09T09:28:28.334Z,1.30
2024-05-09T09:31:02.117Z,0.93
2024-05-09T09:33:31.722Z,1.40
2024-05-09T09:35:59.485Z,0.90
2024-05-09T09:38:30.651Z,1.00
2024-05-09T09:40:59.006Z,0.70
2024-05-09T09:43:27.534Z,1.20
2024-05-09T09:45:59.904Z,1.10
2024-05-09T09:48:29.526Z,0.90
2024-05-09T09:50:57.779Z,0.90
2024-05-09T09:53:28.585Z,0.95
2024-05-09T09:55:56.580Z,0.90
2024-05-09T09:58:25.944Z,1.10
2024-05-09T10:00:53.972Z,1.40
2024-05-09T10:03:22.157Z,0.82
2024-05-09T10:05:50.419Z,0.80
2024-05-09T10:08:24.638Z,1.00
2024-05-09T10:10:52.472Z,0.90
2024-05-09T10:13:20.801Z,0.98
2024-05-09T10:15:53.387Z,1.10
2024-05-09T10:18:28.044Z,1.17
2024-05-09T10:20:59.675Z,1.05
2024-05-09T10:23:32.415Z,1.00
2024-05-09T10:26:07.076Z,1.00
2024-05-09T10:28:40.456Z,0.68
2024-05-09T10:31:10.464Z,0.65
2024-05-09T10:33:50.862Z,0.70
2024-05-09T10:36:27.058Z,0.98
2024-05-09T10:38:55.917Z,1.00
2024-05-09T10:41:24.346Z,0.80
2024-05-09T10:43:52.626Z,0.60
2024-05-09T10:46:20.445Z,0.60
2024-05-09T10:48:48.933Z,0.70
2024-05-09T10:51:19.796Z,0.63
2024-05-09T10:53:48.762Z,1.15
2024-05-09T10:56:17.405Z,0.80
2024-05-09T10:58:45.566Z,0.65
2024-05-09T11:01:13.876Z,0.80
2024-05-09T11:03:43.188Z,0.80
2024-05-09T11:06:11.642Z,0.68
2024-05-09T11:08:39.929Z,0.77
2024-05-09T11:11:08.807Z,0.77
2024-05-09T11:13:38.953Z,0.70
2024-05-09T11:16:20.855Z,0.68
2024-05-09T11:18:56.578Z,0.70
2024-05-09T11:21:24.849Z,0.70
2024-05-09T11:23:53.252Z,0.95
2024-05-09T11:26:22.321Z,0.80
2024-05-09T11:28:50.962Z,0.95
2024-05-09T11:31:18.941Z,0.80
2024-05-09T11:33:47.310Z,1.23
2024-05-09T11:36:15.918Z,1.30
2024-05-09T11:38:43.932Z,0.80
2024-05-09T11:41:18.736Z,0.85
2024-05-09T11:43:46.714Z,0.70
2024-05-09T11:46:14.593Z,0.98
2024-05-09T11:48:42.856Z,0.77
2024-05-09T11:51:10.439Z,0.70
2024-05-09T11:53:41.150Z,0.70
2024-05-09T11:56:08.688Z,0.85
2024-05-09T11:58:39.443Z,0.85
2024-05-09T12:01:07.527Z,0.80
2024-05-09T12:03:37.903Z,0.85
2024-05-09T12:06:06.144Z,0.70
2024-05-09T12:08:34.149Z,0.85
2024-05-09T12:11:01.813Z,0.70
2024-05-09T12:13:29.840Z,0.80
2024-05-09T12:15:57.358Z,0.70
2024-05-09T12:18:25.290Z,0.70
2024-05-09T12:20:52.886Z,0.70
2024-05-09T12:23:20.770Z,0.65
2024-05-09T12:25:48.419Z,0.90
2024-05-09T12:28:16.807Z,0.50
2024-05-09T12:30:44.966Z,0.50
2024-05-09T12:33:14.240Z,0.75
2024-05-09T12:35:44.342Z,0.75
2024-05-09T12:38:15.574Z,0.80
2024-05-09T12:40:43.656Z,0.50
2024-05-09T12:43:12.070Z,0.50
2024-05-09T12:45:40.849Z,0.60
2024-05-09T12:48:12.431Z,0.50
2024-05-09T12:50:40.874Z,0.60
2024-05-09T12:53:09.033Z,0.60
2024-05-09T12:55:44.257Z,0.52
2024-05-09T12:58:24.428Z,0.75
2024-05-09T13:00:52.998Z,0.70
2024-05-09T13:03:22.248Z,0.80
2024-05-09T13:05:51.271Z,1.00
2024-05-09T13:08:20.808Z,0.82
2024-05-09T13:10:48.936Z,0.75
2024-05-09T13:13:17.239Z,0.70
2024-05-09T13:15:44.897Z,0.60
2024-05-09T13:18:15.525Z,0.40
2024-05-09T13:20:46.036Z,1.25
2024-05-09T13:23:13.975Z,0.98
2024-05-09T13:25:41.484Z,0.70
2024-05-09T13:28:09.412Z,0.60
2024-05-09T13:30:40.996Z,0.80
2024-05-09T13:33:12.014Z,0.88
2024-05-09T13:35:47.127Z,0.68
2024-05-09T13:38:22.408Z,0.70
2024-05-09T13:40:50.675Z,0.90
2024-05-09T13:43:19.286Z,0.60
2024-05-09T13:45:47.340Z,0.88
2024-05-09T13:48:15.600Z,0.70
2024-05-09T13:50:43.187Z,0.50
2024-05-09T13:53:11.807Z,0.57
2024-05-09T13:55:39.735Z,0.40
2024-05-09T13:58:11.178Z,0.60
2024-05-09T14:00:47.271Z,0.73
2024-05-09T14:03:20.361Z,0.40
2024-05-09T14:05:51.198Z,0.40
2024-05-09T14:08:22.260Z,0.38
2024-05-09T14:10:53.760Z,0.60
2024-05-09T14:13:21.951Z,0.50
2024-05-09T14:15:49.743Z,0.60
2024-05-09T14:18:18.150Z,0.50
2024-05-09T14:20:45.686Z,0.77
2024-05-09T14:23:13.542Z,0.57
2024-05-09T14:25:42.884Z,0.65
2024-05-09T14:28:13.329Z,0.77
2024-05-09T14:30:42.412Z,1.10
2024-05-09T14:33:11.739Z,0.50
2024-05-09T14:35:39.573Z,0.47
2024-05-09T14:38:09.010Z,0.57
2024-05-09T14:40:42.420Z,0.50
2024-05-09T14:43:13.839Z,0.60
2024-05-09T14:45:45.809Z,0.70
2024-05-09T14:48:15.965Z,0.98
2024-05-09T14:50:43.862Z,0.95
2024-05-09T14:53:13.823Z,1.42
2024-05-09T14:55:43.408Z,0.68
2024-05-09T14:58:13.239Z,1.00
2024-05-09T15:00:46.564Z,0.70
2024-05-09T15:03:19.113Z,0.70
2024-05-09T15:05:48.319Z,0.60
2024-05-09T15:08:18.376Z,0.85
2024-05-09T15:10:46.571Z,0.55
2024-05-09T15:13:16.558Z,0.70
2024-05-09T15:15:45.171Z,0.70
2024-05-09T15:18:14.364Z,0.73
2024-05-09T15:20:43.830Z,0.70
2024-05-09T15:23:12.071Z,0.60
2024-05-09T15:25:39.623Z,0.70
2024-05-09T15:28:08.226Z,0.68
2024-05-09T15:30:36.727Z,0.60
2024-05-09T15:33:07.199Z,0.50
2024-05-09T15:35:36.224Z,0.70
2024-05-09T15:38:04.920Z,0.43
2024-05-09T15:40:39.100Z,0.50
2024-05-09T15:43:10.584Z,0.60
2024-05-09T15:45:41.374Z,0.63
2024-05-09T15:48:11.526Z,0.45
2024-05-09T15:50:41.649Z,0.70
2024-05-09T15:53:13.261Z,0.60
2024-05-09T15:55:42.554Z,0.50
2024-05-09T15:58:11.221Z,0.60
2024-05-09T16:00:42.175Z,0.65
2024-05-09T16:03:13.107Z,0.50
2024-05-09T16:05:43.440Z,0.75
2024-05-09T16:08:12.547Z,0.70
2024-05-09T16:10:46.167Z,0.60
2024-05-09T16:13:16.499Z,0.60
2024-05-09T16:15:44.717Z,0.68
2024-05-09T16:18:13.180Z,1.30
2024-05-09T16:20:42.465Z,1.27
2024-05-09T16:23:15.331Z,0.80
2024-05-09T16:25:51.294Z,0.70
2024-05-09T16:28:20.521Z,0.60
2024-05-09T16:30:49.386Z,0.63
2024-05-09T16:33:25.914Z,0.50
2024-05-09T16:35:56.734Z,0.60
2024-05-09T16:38:25.571Z,0.60
2024-05-09T16:40:53.488Z,0.80
2024-05-09T16:43:21.666Z,0.75
2024-05-09T16:45:49.318Z,0.68
2024-05-09T16:48:17.451Z,0.80
2024-05-09T16:50:44.996Z,0.73
2024-05-09T16:53:13.731Z,0.90
2024-05-09T16:55:41.584Z,0.63
2024-05-09T16:58:12.071Z,0.65
2024-05-09T17:00:43.412Z,0.95
2024-05-09T17:03:15.362Z,0.75
2024-05-09T17:05:46.042Z,0.80
2024-05-09T17:08:16.871Z,0.73
2024-05-09T17:10:50.921Z,0.60
2024-05-09T17:13:19.797Z,0.60
2024-05-09T17:15:48.095Z,0.70
2024-05-09T17:18:16.842Z,0.60
2024-05-09T17:20:44.380Z,0.60
2024-05-09T17:23:15.293Z,0.93
2024-05-09T17:25:43.351Z,0.70
2024-05-09T17:28:12.047Z,1.10
2024-05-09T17:30:41.986Z,1.60
2024-05-09T17:33:12.287Z,1.25
2024-05-09T17:35:40.675Z,1.17
2024-05-09T17:38:09.084Z,1.35
2024-05-09T17:40:38.340Z,1.25
2024-05-09T17:43:09.719Z,1.10
2024-05-09T17:45:40.354Z,0.80
2024-05-09T17:48:10.503Z,1.30
2024-05-09T17:50:39.197Z,1.00
2024-05-09T17:53:08.143Z,0.75
2024-05-09T17:55:36.155Z,0.82
2024-05-09T17:58:05.527Z,1.05
2024-05-09T18:00:39.163Z,0.82
2024-05-09T18:03:14.169Z,0.98
2024-05-09T18:05:45.244Z,0.82
2024-05-09T18:08:13.911Z,0.90
2024-05-09T18:10:41.969Z,1.10
2024-05-09T18:13:10.953Z,0.90
2024-05-09T18:15:39.278Z,1.17
2024-05-09T18:18:08.143Z,0.77
2024-05-09T18:20:42.283Z,1.30
2024-05-09T18:23:18.679Z,1.33
2024-05-09T18:25:48.121Z,1.10
2024-05-09T18:28:17.333Z,0.88
2024-05-09T18:30:45.732Z,0.90
2024-05-09T18:33:14.314Z,1.20
2024-05-09T18:35:44.008Z,1.60
2024-05-09T18:38:12.152Z,1.27
2024-05-09T18:40:41.710Z,1.48
2024-05-09T18:43:11.540Z,1.98
2024-05-09T18:45:39.478Z,3.85
2024-05-09T18:48:12.313Z,5.60
2024-05-09T18:50:41.341Z,3.67
2024-05-09T18:53:12.388Z,4.25
2024-05-09T18:55:43.752Z,5.60
2024-05-09T18:58:11.913Z,4.35
2024-05-09T19:00:42.532Z,4.63
2024-05-09T19:05:44.380Z,2.83
2024-05-09T19:08:14.780Z,2.95
2024-05-09T19:10:42.699Z,3.38
2024-05-09T19:13:13.079Z,2.55
2024-05-09T19:15:43.115Z,2.85
2024-05-09T19:18:15.605Z,2.58
2024-05-09T19:20:44.427Z,2.60
2024-05-09T19:23:12.927Z,2.40
2024-05-09T19:25:40.548Z,2.15
2024-05-09T19:28:08.738Z,2.47
2024-05-09T19:30:41.325Z,1.80
2024-05-09T19:33:13.257Z,2.28
2024-05-09T19:35:41.976Z,2.10
2024-05-09T19:38:10.170Z,2.63
2024-05-09T19:40:37.959Z,2.13
2024-05-09T19:43:06.979Z,2.33
2024-05-09T19:45:36.201Z,2.30
2024-05-09T19:48:06.028Z,2.35
2024-05-09T19:50:41.670Z,2.33
2024-05-09T19:53:15.528Z,2.75
2024-05-09T19:55:44.038Z,4.45
2024-05-09T19:58:12.941Z,4.95
2024-05-09T20:00:43.035Z,3.20
2024-05-09T20:03:14.092Z,3.20
2024-05-09T20:05:45.351Z,3.78
2024-05-09T20:08:14.078Z,3.20
2024-05-09T20:10:41.627Z,2.88
2024-05-09T20:13:11.387Z,3.55
2024-05-09T20:15:40.133Z,2.97
2024-05-09T20:18:08.399Z,2.80
2024-05-09T20:20:40.083Z,2.45
2024-05-09T20:23:14.347Z,2.88
2024-05-09T20:25:42.839Z,3.03
2024-05-09T20:28:13.918Z,2.92
2024-05-09T20:30:41.543Z,2.95
2024-05-09T20:33:10.220Z,2.70
2024-05-09T20:35:38.255Z,2.90
2024-05-09T20:38:06.805Z,2.80
2024-05-09T20:40:38.191Z,10.38
2024-05-09T20:43:10.547Z,8.20
2024-05-09T20:45:39.542Z,3.92
2024-05-09T20:48:08.451Z,9.00
2024-05-09T20:50:40.731Z,3.42
2024-05-09T20:53:12.361Z,3.38
2024-05-09T20:55:41.510Z,3.38
2024-05-09T20:58:09.936Z,2.72
2024-05-09T21:00:42.067Z,3.60
2024-05-09T21:03:13.469Z,2.95
2024-05-09T21:05:42.688Z,3.10
2024-05-09T21:08:10.447Z,2.88
2024-05-09T21:10:38.627Z,2.88
2024-05-09T21:13:07.152Z,3.30
2024-05-09T21:15:36.130Z,3.25
2024-05-09T21:18:04.737Z,2.92
2024-05-09T21:20:34.873Z,3.13
2024-05-09T21:23:03.245Z,2.90
2024-05-09T21:25:32.330Z,3.10
2024-05-09T21:28:00.758Z,2.60
2024-05-09T21:30:38.487Z,3.15
2024-05-09T21:33:11.248Z,2.50
2024-05-09T21:35:41.408Z,2.78
2024-05-09T21:38:09.100Z,3.03
2024-05-09T21:40:38.155Z,3.00
2024-05-09T21:43:07.910Z,3.08
2024-05-09T21:45:36.653Z,2.28
2024-05-09T21:48:08.424Z,2.75
2024-05-09T21:50:40.691Z,3.00
2024-05-09T21:53:11.585Z,2.85
2024-05-09T21:55:40.033Z,2.90
2024-05-09T21:58:07.671Z,2.95
2024-05-09T22:00:38.384Z,2.85
2024-05-09T22:03:08.569Z,3.45
2024-05-09T22:05:37.809Z,3.90
2024-05-09T22:08:05.819Z,3.03
2024-05-09T22:10:36.185Z,3.60
2024-05-09T22:13:06.048Z,2.97
2024-05-09T22:15:40.346Z,4.30
2024-05-09T22:18:10.388Z,25.77
2024-05-09T22:20:46.766Z,3.47
2024-05-09T22:23:15.862Z,4.07
2024-05-09T22:25:44.220Z,4.63
2024-05-09T22:28:15.275Z,11.68
2024-05-09T22:30:45.984Z,3.03
2024-05-09T22:33:15.058Z,2.95
2024-05-09T22:35:43.088Z,2.92
2024-05-09T22:38:10.619Z,2.60
2024-05-09T22:40:46.686Z,2.60
2024-05-09T22:43:22.337Z,3.10
2024-05-09T22:45:52.477Z,16.67
2024-05-09T22:48:20.692Z,9.50
2024-05-09T22:50:48.753Z,17.30
2024-05-09T22:53:16.375Z,4.50
2024-05-09T22:55:44.356Z,4.03
2024-05-09T22:58:11.843Z,3.05
2024-05-09T23:00:40.282Z,2.83
2024-05-09T23:03:07.952Z,2.83
2024-05-09T23:05:36.081Z,2.65
2024-05-09T23:08:03.690Z,2.70
2024-05-09T23:10:36.590Z,2.28
2024-05-09T23:13:07.701Z,2.35
2024-05-09T23:15:38.724Z,2.63
2024-05-09T23:18:06.941Z,2.92
2024-05-09T23:20:38.608Z,2.70
2024-05-09T23:23:11.748Z,2.70
2024-05-09T23:25:44.208Z,3.22
2024-05-09T23:28:12.284Z,2.90
2024-05-09T23:30:41.480Z,2.60
2024-05-09T23:33:12.433Z,2.92
2024-05-09T23:35:42.497Z,2.60
2024-05-09T23:38:10.043Z,2.25
2024-05-09T23:40:42.334Z,2.70
2024-05-09T23:43:12.120Z,2.60
2024-05-09T23:45:41.628Z,2.50
2024-05-09T23:48:10.060Z,2.00
2024-05-09T23:50:39.739Z,2.05
2024-05-09T23:53:09.438Z,1.98
2024-05-09T23:55:38.367Z,2.60
2024-05-09T23:58:06.973Z,2.70
